createdAt,value
2023-02-03T00:00:43.842Z,66.43
2023-02-03T00:03:11.979Z,66.31
2023-02-03T00:05:44.148Z,66.04
2023-02-03T00:08:16.805Z,65.68
2023-02-03T00:10:46.969Z,66.13
2023-02-03T00:13:15.792Z,66.49
2023-02-03T00:15:44.305Z,66.06
2023-02-03T00:18:12.685Z,66.09
2023-02-03T00:20:40.886Z,66.62
2023-02-03T00:23:11.877Z,65.94
2023-02-03T00:25:41.548Z,66.34
2023-02-03T00:28:11.049Z,66.22
2023-02-03T00:30:39.224Z,66.48
2023-02-03T00:33:07.297Z,66.74
2023-02-03T00:35:38.303Z,66.66
2023-02-03T00:38:06.405Z,67.09
2023-02-03T00:40:34.528Z,66.15
2023-02-03T00:43:03.104Z,66.57
2023-02-03T00:45:32.709Z,66.39
2023-02-03T00:48:03.633Z,66.71
2023-02-03T00:50:31.784Z,66.36
2023-02-03T00:52:59.835Z,67.19
2023-02-03T00:55:28.374Z,66.86
2023-02-03T00:57:56.608Z,66.75
2023-02-03T01:00:25.983Z,67.73
2023-02-03T01:02:55.737Z,67.86
2023-02-03T01:05:24.773Z,67.18
2023-02-03T01:07:52.793Z,67.50
2023-02-03T01:10:21.048Z,67.23
2023-02-03T01:12:49.209Z,67.29
2023-02-03T01:15:17.578Z,67.10
2023-02-03T01:17:46.109Z,67.15
2023-02-03T01:20:17.061Z,66.98
2023-02-03T01:22:45.200Z,67.32
2023-02-03T01:25:13.354Z,67.72
2023-02-03T01:27:41.457Z,67.39
2023-02-03T01:30:11.511Z,67.60
2023-02-03T01:32:39.792Z,67.62
2023-02-03T01:35:08.647Z,67.76
2023-02-03T01:37:38.909Z,68.22
2023-02-03T01:40:09.069Z,67.64
2023-02-03T01:42:37.148Z,67.70
2023-02-03T01:45:06.369Z,68.36
2023-02-03T01:47:40.993Z,67.74
2023-02-03T01:50:15.898Z,67.84
2023-02-03T01:52:52.635Z,68.04
2023-02-03T01:55:25.246Z,68.10
2023-02-03T01:57:59.807Z,68.18
2023-02-03T02:00:28.948Z,67.88
2023-02-03T02:03:02.875Z,67.90
2023-02-03T02:05:36.075Z,67.90
2023-02-03T02:08:06.930Z,67.12
2023-02-03T02:10:35.979Z,67.39
2023-02-03T02:13:05.852Z,67.48
2023-02-03T02:15:45.654Z,66.80
2023-02-03T02:18:41.970Z,66.28
2023-02-03T02:21:57.995Z,66.49
2023-02-03T02:25:40.293Z,66.86
2023-02-03T02:29:01.682Z,66.79
2023-02-03T02:32:03.906Z,66.72
2023-02-03T02:34:48.265Z,67.29
2023-02-03T02:37:32.659Z,67.29
2023-02-03T02:40:16.891Z,67.17
2023-02-03T02:43:00.214Z,66.85
2023-02-03T02:45:35.205Z,66.85
2023-02-03T02:48:11.590Z,66.09
2023-02-03T02:50:44.770Z,66.70
2023-02-03T02:53:15.554Z,66.73
2023-02-03T02:55:47.472Z,66.35
2023-02-03T02:58:21.621Z,66.57
2023-02-03T03:00:49.762Z,66.49
2023-02-03T03:03:22.635Z,66.20
2023-02-03T03:05:56.071Z,66.67
2023-02-03T03:08:37.229Z,65.96
2023-02-03T03:11:06.121Z,66.58
2023-02-03T03:13:44.232Z,66.61
2023-02-03T03:16:15.395Z,66.48
2023-02-03T03:18:50.287Z,66.35
2023-02-03T03:21:26.699Z,66.32
2023-02-03T03:23:58.360Z,65.80
2023-02-03T03:26:33.801Z,66.13
2023-02-03T03:29:16.394Z,65.85
2023-02-03T03:31:45.857Z,65.85
2023-02-03T03:34:17.134Z,65.24
2023-02-03T03:36:51.733Z,65.42
2023-02-03T03:39:29.576Z,65.54
2023-02-03T03:42:05.946Z,65.34
2023-02-03T03:44:43.137Z,65.15
2023-02-03T03:47:26.497Z,65.36
2023-02-03T03:49:59.067Z,65.57
2023-02-03T03:52:32.046Z,65.31
2023-02-03T03:55:02.717Z,64.93
2023-02-03T03:57:35.360Z,65.13
2023-02-03T04:00:06.738Z,64.49
2023-02-03T04:02:43.043Z,64.99
2023-02-03T04:05:14.777Z,64.74
2023-02-03T04:07:45.339Z,64.64
2023-02-03T04:10:24.603Z,64.77
2023-02-03T04:12:59.563Z,64.52
2023-02-03T04:15:28.647Z,64.68
2023-02-03T04:17:57.145Z,64.92
2023-02-03T04:20:26.979Z,65.67
2023-02-03T04:22:55.786Z,65.76
2023-02-03T04:25:24.428Z,66.09
2023-02-03T04:27:55.283Z,66.50
2023-02-03T04:30:24.351Z,67.00
2023-02-03T04:32:52.474Z,67.15
2023-02-03T04:35:21.051Z,66.89
2023-02-03T04:37:50.573Z,67.09
2023-02-03T04:40:19.478Z,67.88
2023-02-03T04:42:47.672Z,67.65
2023-02-03T04:45:15.816Z,67.66
2023-02-03T04:47:43.966Z,67.59
2023-02-03T04:50:12.036Z,67.91
2023-02-03T04:52:40.108Z,68.10
2023-02-03T04:55:10.509Z,68.14
2023-02-03T04:57:38.589Z,68.89
2023-02-03T05:00:17.241Z,68.39
2023-02-03T05:02:45.958Z,68.62
2023-02-03T05:05:14.017Z,68.64
2023-02-03T05:07:42.120Z,68.54
2023-02-03T05:10:12.473Z,68.35
2023-02-03T05:12:41.539Z,68.54
2023-02-03T05:15:11.490Z,68.98
2023-02-03T05:17:40.250Z,68.85
2023-02-03T05:20:11.423Z,68.75
2023-02-03T05:22:39.851Z,68.85
2023-02-03T05:28:02.797Z,69.55
2023-02-03T05:30:31.080Z,69.06
2023-02-03T05:32:59.233Z,68.71
2023-02-03T05:35:27.656Z,69.38
2023-02-03T05:37:56.524Z,69.48
2023-02-03T05:40:42.483Z,69.45
2023-02-03T05:43:12.237Z,69.39
2023-02-03T05:45:40.755Z,69.21
2023-02-03T05:48:10.013Z,69.38
2023-02-03T05:50:39.236Z,69.13
2023-02-03T05:53:10.394Z,68.31
2023-02-03T05:55:38.682Z,68.74
2023-02-03T05:58:06.881Z,69.01
2023-02-03T06:00:36.372Z,69.11
2023-02-03T06:03:05.623Z,68.64
2023-02-03T06:05:37.767Z,69.08
2023-02-03T06:08:06.327Z,68.18
2023-02-03T06:10:34.559Z,68.58
2023-02-03T06:13:11.761Z,68.65
2023-02-03T06:15:42.259Z,68.16
2023-02-03T06:18:11.067Z,68.19
2023-02-03T06:20:39.100Z,68.41
2023-02-03T06:23:07.194Z,68.59
2023-02-03T06:25:35.398Z,68.75
2023-02-03T06:28:03.900Z,68.36
2023-02-03T06:30:33.165Z,68.83
2023-02-03T06:33:02.796Z,68.23
2023-02-03T06:35:31.074Z,68.20
2023-02-03T06:37:59.304Z,68.37
2023-02-03T06:40:30.575Z,68.80
2023-02-03T06:42:58.992Z,68.92
2023-02-03T06:45:28.970Z,69.09
2023-02-03T06:47:57.255Z,69.37
2023-02-03T06:50:27.458Z,69.63
2023-02-03T06:52:58.179Z,69.40
2023-02-03T06:55:26.462Z,68.88
2023-02-03T06:57:54.562Z,69.26
2023-02-03T07:00:24.427Z,69.09
2023-02-03T07:02:56.038Z,69.28
2023-02-03T07:05:27.830Z,69.09
2023-02-03T07:07:59.141Z,69.15
2023-02-03T07:10:27.770Z,69.17
2023-02-03T07:12:56.311Z,69.17
2023-02-03T07:15:30.399Z,68.74
2023-02-03T07:17:58.739Z,69.40
2023-02-03T07:20:29.653Z,69.24
2023-02-03T07:22:59.406Z,69.24
2023-02-03T07:25:28.032Z,69.76
2023-02-03T07:27:56.287Z,69.09
2023-02-03T07:30:24.816Z,69.16
2023-02-03T07:32:54.235Z,69.61
2023-02-03T07:35:23.033Z,69.38
2023-02-03T07:37:52.818Z,69.60
2023-02-03T07:40:21.580Z,69.55
2023-02-03T07:42:50.580Z,69.51
2023-02-03T07:50:00.889Z,69.67
2023-02-03T07:52:29.100Z,69.78
2023-02-03T07:54:58.535Z,69.82
2023-02-03T07:57:26.716Z,70.14
2023-02-03T07:59:54.916Z,69.87
2023-02-03T08:02:23.050Z,70.03
2023-02-03T08:04:51.591Z,70.17
2023-02-03T08:07:19.924Z,69.95
2023-02-03T08:09:48.091Z,70.25
2023-02-03T08:12:17.636Z,69.94
2023-02-03T08:14:45.721Z,70.07
2023-02-03T08:17:13.937Z,70.36
2023-02-03T08:19:42.086Z,69.95
2023-02-03T08:22:15.867Z,70.00
2023-02-03T08:24:45.820Z,70.69
2023-02-03T08:27:14.149Z,69.95
2023-02-03T08:29:44.158Z,70.57
2023-02-03T08:32:14.426Z,70.95
2023-02-03T08:34:42.827Z,70.91
2023-02-03T08:37:13.121Z,71.32
2023-02-03T08:39:41.391Z,71.34
2023-02-03T08:42:09.956Z,70.96
2023-02-03T08:44:39.027Z,70.90
2023-02-03T08:47:09.087Z,70.65
2023-02-03T08:49:39.692Z,70.87
2023-02-03T08:52:12.836Z,70.42
2023-02-03T08:54:42.100Z,70.71
2023-02-03T08:57:14.169Z,70.53
2023-02-03T08:59:44.660Z,70.51
2023-02-03T09:02:18.642Z,70.60
2023-02-03T09:04:49.169Z,70.56
2023-02-03T09:07:18.050Z,70.49
2023-02-03T09:09:47.322Z,70.74
2023-02-03T09:12:15.631Z,70.92
2023-02-03T09:14:46.686Z,70.65
2023-02-03T09:17:19.035Z,71.02
2023-02-03T09:19:47.630Z,70.97
2023-02-03T09:22:16.430Z,70.91
2023-02-03T09:24:45.091Z,70.82
2023-02-03T09:27:13.344Z,71.12
2023-02-03T09:29:41.926Z,71.23
2023-02-03T09:32:11.551Z,70.70
2023-02-03T09:34:42.417Z,71.27
2023-02-03T09:37:10.857Z,70.92
2023-02-03T09:39:39.024Z,70.43
2023-02-03T09:42:33.840Z,70.84
2023-02-03T09:45:15.762Z,71.70
2023-02-03T09:47:45.544Z,73.22
2023-02-03T09:50:25.902Z,72.71
2023-02-03T09:52:58.483Z,71.60
2023-02-03T09:55:35.657Z,70.23
2023-02-03T09:58:12.454Z,73.34
2023-02-03T10:00:45.755Z,69.64
2023-02-03T10:03:27.128Z,69.64
2023-02-03T10:06:17.604Z,70.21
2023-02-03T10:09:05.508Z,69.07
2023-02-03T10:11:55.970Z,69.10
2023-02-03T10:14:39.661Z,68.10
2023-02-03T10:17:23.834Z,67.60
2023-02-03T10:20:01.971Z,67.89
2023-02-03T10:22:37.589Z,67.82
2023-02-03T10:25:17.237Z,67.66
2023-02-03T10:27:46.079Z,68.04
2023-02-03T10:30:22.949Z,67.61
2023-02-03T10:32:55.465Z,67.60
2023-02-03T10:35:29.669Z,68.10
2023-02-03T10:38:00.576Z,68.40
2023-02-03T10:40:29.538Z,67.99
2023-02-03T10:43:21.140Z,68.18
2023-02-03T10:45:49.556Z,68.56
2023-02-03T10:48:20.141Z,68.35
2023-02-03T10:50:51.835Z,69.00
2023-02-03T10:53:29.114Z,68.44
2023-02-03T10:56:08.037Z,67.67
2023-02-03T10:58:42.443Z,67.88
2023-02-03T11:01:13.551Z,67.85
2023-02-03T11:03:45.840Z,67.67
2023-02-03T11:06:18.825Z,67.39
2023-02-03T11:08:50.532Z,67.72
2023-02-03T11:11:25.061Z,68.08
2023-02-03T11:14:11.093Z,68.35
2023-02-03T11:16:43.407Z,67.99
2023-02-03T11:19:44.315Z,68.14
2023-02-03T11:22:14.031Z,68.57
2023-02-03T11:24:45.293Z,68.16
2023-02-03T11:27:17.704Z,68.06
2023-02-03T11:29:52.480Z,67.25
2023-02-03T11:32:25.760Z,66.92
2023-02-03T11:34:59.127Z,67.16
2023-02-03T11:37:31.123Z,67.30
2023-02-03T11:40:25.207Z,66.91
2023-02-03T11:43:07.164Z,67.06
2023-02-03T11:45:42.775Z,66.77
2023-02-03T11:48:28.970Z,66.26
2023-02-03T11:51:05.368Z,66.87
2023-02-03T11:53:57.468Z,66.58
2023-02-03T11:57:02.165Z,66.46
2023-02-03T11:59:49.773Z,66.74
2023-02-03T12:02:59.023Z,66.01
2023-02-03T12:05:46.261Z,66.03
2023-02-03T12:08:32.304Z,65.83
2023-02-03T12:11:25.730Z,65.87
2023-02-03T12:14:22.229Z,66.41
2023-02-03T12:17:12.617Z,65.83
2023-02-03T12:19:59.181Z,65.72
2023-02-03T12:22:39.764Z,65.53
2023-02-03T12:25:29.038Z,65.50
2023-02-03T12:28:31.167Z,65.15
2023-02-03T12:31:12.155Z,65.18
2023-02-03T12:33:47.365Z,64.68
2023-02-03T12:36:27.011Z,65.33
2023-02-03T12:39:02.846Z,64.35
2023-02-03T12:41:38.443Z,64.40
2023-02-03T12:44:17.059Z,64.96
2023-02-03T12:46:52.450Z,64.51
2023-02-03T12:49:34.997Z,64.00
2023-02-03T12:52:19.412Z,64.17
2023-02-03T12:54:56.188Z,64.51
2023-02-03T12:57:30.461Z,64.69
2023-02-03T13:00:27.025Z,64.90
2023-02-03T13:03:12.744Z,64.69
2023-02-03T13:05:49.211Z,64.22
2023-02-03T13:08:27.484Z,63.86
2023-02-03T13:11:04.792Z,63.58
2023-02-03T13:13:39.382Z,64.34
2023-02-03T13:16:12.040Z,64.43
2023-02-03T13:18:49.499Z,64.73
2023-02-03T13:21:17.646Z,64.21
2023-02-03T13:23:48.079Z,64.57
2023-02-03T13:26:50.478Z,64.12
2023-02-03T13:29:54.884Z,63.64
2023-02-03T13:32:46.061Z,64.24
2023-02-03T13:35:36.182Z,64.45
2023-02-03T13:38:27.086Z,63.73
2023-02-03T13:41:05.819Z,64.30
2023-02-03T13:43:38.934Z,64.36
2023-02-03T13:46:20.890Z,64.57
2023-02-03T13:48:50.000Z,64.42
2023-02-03T13:51:23.736Z,64.04
2023-02-03T13:53:59.751Z,64.75
2023-02-03T13:56:29.344Z,64.54
2023-02-03T13:59:07.220Z,64.80
2023-02-03T14:01:40.202Z,64.51
2023-02-03T14:04:10.521Z,64.75
2023-02-03T14:07:04.973Z,65.09
2023-02-03T14:09:42.113Z,64.69
2023-02-03T14:12:56.361Z,64.09
2023-02-03T14:15:36.573Z,64.75
2023-02-03T14:18:33.773Z,65.14
2023-02-03T14:21:18.852Z,64.74
2023-02-03T14:24:09.426Z,64.62
2023-02-03T14:26:43.068Z,65.09
2023-02-03T14:29:29.317Z,65.29
2023-02-03T14:32:02.059Z,65.16
2023-02-03T14:34:37.979Z,65.02
2023-02-03T14:37:21.233Z,65.72
2023-02-03T14:40:26.586Z,65.41
2023-02-03T14:43:34.797Z,65.86
2023-02-03T14:46:35.353Z,65.54
2023-02-03T14:49:26.095Z,65.24
2023-02-03T14:52:16.096Z,65.46
2023-02-03T14:55:13.590Z,65.51
2023-02-03T14:57:49.562Z,66.24
2023-02-03T15:00:34.449Z,66.02
2023-02-03T15:03:30.196Z,66.20
2023-02-03T15:06:02.462Z,65.89
2023-02-03T15:08:44.462Z,65.79
2023-02-03T15:11:34.718Z,65.86
2023-02-03T15:14:26.975Z,65.90
2023-02-03T15:16:59.047Z,66.07
2023-02-03T15:19:33.336Z,65.89
2023-02-03T15:22:02.110Z,66.01
2023-02-03T15:24:38.155Z,65.94
2023-02-03T15:27:09.692Z,66.54
2023-02-03T15:29:39.137Z,66.72
2023-02-03T15:32:15.798Z,66.09
2023-02-03T15:34:48.827Z,65.51
2023-02-03T15:37:24.338Z,66.22
2023-02-03T15:40:03.333Z,66.36
2023-02-03T15:42:39.574Z,66.24
2023-02-03T15:45:24.742Z,66.07
2023-02-03T15:47:56.668Z,66.75
2023-02-03T15:51:19.814Z,66.94
2023-02-03T15:53:55.071Z,66.37
2023-02-03T15:56:35.562Z,67.06
2023-02-03T15:59:04.720Z,66.56
2023-02-03T16:01:35.039Z,67.22
2023-02-03T16:04:10.731Z,66.91
2023-02-03T16:06:44.568Z,67.38
2023-02-03T16:09:30.495Z,67.12
2023-02-03T16:12:19.468Z,66.80
2023-02-03T16:14:48.511Z,67.42
2023-02-03T16:17:27.215Z,67.45
2023-02-03T16:20:23.963Z,67.30
2023-02-03T16:23:12.393Z,67.77
2023-02-03T16:25:41.385Z,68.13
2023-02-03T16:28:35.991Z,69.17
2023-02-03T16:31:31.901Z,68.55
2023-02-03T16:34:21.749Z,69.63
2023-02-03T16:37:08.306Z,69.38
2023-02-03T16:39:53.917Z,69.30
2023-02-03T16:42:40.278Z,70.00
2023-02-03T16:45:33.675Z,70.57
2023-02-03T16:48:20.910Z,70.50
2023-02-03T16:50:54.185Z,70.69
2023-02-03T16:53:24.542Z,70.57
2023-02-03T16:55:55.642Z,70.61
2023-02-03T16:58:25.699Z,69.81
2023-02-03T17:00:55.178Z,69.35
2023-02-03T17:03:29.425Z,69.38
2023-02-03T17:06:06.411Z,69.91
2023-02-03T17:08:35.395Z,69.96
2023-02-03T17:11:08.812Z,69.49
2023-02-03T17:13:37.640Z,69.04
2023-02-03T17:16:13.831Z,69.22
2023-02-03T17:18:42.369Z,68.96
2023-02-03T17:21:15.967Z,68.76
2023-02-03T17:23:44.737Z,69.88
2023-02-03T17:26:13.288Z,69.27
2023-02-03T17:28:43.318Z,68.87
2023-02-03T17:31:16.743Z,69.82
2023-02-03T17:33:46.419Z,69.97
2023-02-03T17:36:19.622Z,70.29
2023-02-03T17:53:18.848Z,69.93
2023-02-03T17:58:15.953Z,69.92
2023-02-03T18:00:44.314Z,70.33
2023-02-03T18:03:13.825Z,70.17
2023-02-03T18:05:51.871Z,69.88
2023-02-03T18:08:25.486Z,69.13
2023-02-03T18:10:53.778Z,69.55
2023-02-03T18:13:26.118Z,69.88
2023-02-03T18:15:57.363Z,69.14
2023-02-03T18:18:26.030Z,68.85
2023-02-03T18:20:54.595Z,69.28
2023-02-03T18:23:25.944Z,69.23
2023-02-03T18:25:54.842Z,69.76
2023-02-03T18:28:23.959Z,69.60
2023-02-03T18:30:53.696Z,69.52
2023-02-03T18:33:21.953Z,69.75
2023-02-03T18:35:52.214Z,69.43
2023-02-03T18:38:20.724Z,69.67
2023-02-03T18:40:50.266Z,69.89
2023-02-03T18:43:18.521Z,69.65
2023-02-03T18:45:46.737Z,69.91
2023-02-03T18:48:15.447Z,70.91
2023-02-03T18:50:43.983Z,70.75
2023-02-03T18:53:12.327Z,70.37
2023-02-03T18:55:43.035Z,70.95
2023-02-03T18:58:14.477Z,71.96
2023-02-03T19:00:42.964Z,72.05
2023-02-03T19:03:13.462Z,72.28
2023-02-03T19:05:44.268Z,71.98
2023-02-03T19:08:17.586Z,72.69
2023-02-03T19:10:52.878Z,72.93
2023-02-03T19:13:23.382Z,72.94
2023-02-03T19:15:53.458Z,72.77
2023-02-03T19:18:21.734Z,72.74
2023-02-03T19:20:50.209Z,72.51
2023-02-03T19:23:18.261Z,72.63
2023-02-03T19:25:50.990Z,72.64
2023-02-03T19:28:29.950Z,72.44
2023-02-03T19:31:08.840Z,72.73
2023-02-03T19:33:37.420Z,72.72
2023-02-03T19:36:07.461Z,71.90
2023-02-03T19:38:36.331Z,73.00
2023-02-03T19:41:05.438Z,72.87
2023-02-03T19:43:33.800Z,72.70
2023-02-03T19:46:02.295Z,73.02
2023-02-03T19:48:32.070Z,73.31
2023-02-03T19:51:00.145Z,72.85
2023-02-03T19:53:28.438Z,73.01
2023-02-03T19:55:56.520Z,73.29
2023-02-03T19:58:24.948Z,73.13
2023-02-03T20:00:53.088Z,72.85
2023-02-03T20:03:22.707Z,73.33
2023-02-03T20:05:52.909Z,73.34
2023-02-03T20:08:21.117Z,73.51
2023-02-03T20:10:49.418Z,73.44
2023-02-03T20:13:17.487Z,73.15
2023-02-03T20:15:47.608Z,72.95
2023-02-03T20:18:15.823Z,73.45
2023-02-03T20:20:43.852Z,73.01
2023-02-03T20:23:13.346Z,73.87
2023-02-03T20:25:42.613Z,73.22
2023-02-03T20:28:14.359Z,72.97
2023-02-03T20:30:42.977Z,72.44
2023-02-03T20:33:11.460Z,72.07
2023-02-03T20:35:40.026Z,72.13
2023-02-03T20:38:08.152Z,72.16
2023-02-03T20:40:37.568Z,72.71
2023-02-03T20:43:14.100Z,71.92
2023-02-03T20:45:42.601Z,72.20
2023-02-03T20:48:13.250Z,72.04
2023-02-03T20:50:46.645Z,71.44
2023-02-03T20:53:17.334Z,71.38
2023-02-03T20:55:48.171Z,71.35
2023-02-03T20:58:19.942Z,71.11
2023-02-03T21:00:49.982Z,71.24
2023-02-03T21:03:38.326Z,71.31
2023-02-03T21:06:14.477Z,71.34
2023-02-03T21:08:43.756Z,71.37
2023-02-03T21:11:16.999Z,70.86
2023-02-03T21:13:46.899Z,71.00
2023-02-03T21:16:19.252Z,70.32
2023-02-03T21:18:52.773Z,70.98
2023-02-03T21:21:28.658Z,70.32
2023-02-03T21:23:57.777Z,70.89
2023-02-03T21:26:29.710Z,70.00
2023-02-03T21:29:00.920Z,70.26
2023-02-03T21:31:31.821Z,70.19
2023-02-03T21:34:02.937Z,70.73
2023-02-03T21:36:36.478Z,70.21
2023-02-03T21:39:24.394Z,70.33
2023-02-03T21:41:54.408Z,70.17
2023-02-03T21:44:36.829Z,69.92
2023-02-03T21:47:06.324Z,69.69
2023-02-03T21:49:36.188Z,70.08
2023-02-03T21:52:04.568Z,70.24
2023-02-03T21:54:34.552Z,70.85
2023-02-03T21:57:03.948Z,70.33
2023-02-03T21:59:42.127Z,70.28
2023-02-03T22:02:45.816Z,70.00
2023-02-03T22:05:17.202Z,70.64
2023-02-03T22:07:45.327Z,70.45
2023-02-03T22:10:13.461Z,71.13
2023-02-03T22:12:43.930Z,71.09
2023-02-03T22:15:12.265Z,71.22
2023-02-03T22:17:40.609Z,71.29
2023-02-03T22:20:09.495Z,70.79
2023-02-03T22:22:37.756Z,71.04
2023-02-03T22:25:06.656Z,70.93
2023-02-03T22:27:34.799Z,71.15
2023-02-03T22:30:05.265Z,71.80
2023-02-03T22:32:33.289Z,71.80
2023-02-03T22:35:01.566Z,72.68
2023-02-03T22:37:32.241Z,71.95
2023-02-03T22:40:00.355Z,71.97
2023-02-03T22:42:28.383Z,71.42
2023-02-03T22:44:56.767Z,71.25
2023-02-03T22:47:26.372Z,70.92
2023-02-03T22:49:54.549Z,70.98
2023-02-03T22:52:22.622Z,71.24
2023-02-03T22:54:50.888Z,70.94
2023-02-03T22:57:19.523Z,71.56
2023-02-03T22:59:47.590Z,71.03
2023-02-03T23:02:15.783Z,71.87
2023-02-03T23:04:45.279Z,72.04
2023-02-03T23:07:13.704Z,72.35
2023-02-03T23:09:41.991Z,72.65
2023-02-03T23:12:10.351Z,72.34
2023-02-03T23:14:38.561Z,72.08
2023-02-03T23:17:06.679Z,72.30
2023-02-03T23:19:34.709Z,72.68
2023-02-03T23:22:04.140Z,72.46
2023-02-03T23:24:32.193Z,73.17
2023-02-03T23:27:00.308Z,72.67
2023-02-03T23:29:28.462Z,72.28
2023-02-03T23:31:56.671Z,72.32
2023-02-03T23:34:42.624Z,72.04
2023-02-03T23:37:12.369Z,72.46
2023-02-03T23:39:40.623Z,73.50
2023-02-03T23:42:09.052Z,73.25
2023-02-03T23:44:37.430Z,73.66
2023-02-03T23:47:05.668Z,73.87
2023-02-03T23:49:33.965Z,73.60
2023-02-03T23:52:02.174Z,73.40
2023-02-03T23:54:31.741Z,74.22
2023-02-03T23:56:59.791Z,74.38
2023-02-03T23:59:27.892Z,74.14
